createdAt,value
2017-01-27T00:00:13.689Z,54.38
2017-01-27T00:00:54.332Z,54.38
2017-01-27T00:01:35.059Z,53.7
2017-01-27T00:02:15.714Z,54.47
2017-01-27T00:02:56.370Z,54.09
2017-01-27T00:03:37.007Z,54.38
2017-01-27T00:04:17.650Z,54.09
2017-01-27T00:04:58.383Z,54.28
2017-01-27T00:05:39.019Z,54.38
2017-01-27T00:06:19.654Z,54.38
2017-01-27T00:07:00.297Z,54.38
2017-01-27T00:07:41.058Z,54
2017-01-27T00:08:21.695Z,54.38
2017-01-27T00:09:02.333Z,54.47
2017-01-27T00:09:42.969Z,54.28
2017-01-27T00:10:23.710Z,54.16
2017-01-27T00:11:04.387Z,53.78
2017-01-27T00:11:45.085Z,54.19
2017-01-27T00:12:25.737Z,54.25
2017-01-27T00:13:06.414Z,54.35
2017-01-27T00:13:47.114Z,54.06
2017-01-27T00:14:27.752Z,54.38
2017-01-27T00:15:08.406Z,54.47
2017-01-27T00:15:49.054Z,54.38
2017-01-27T00:16:29.793Z,54.19
2017-01-27T00:17:10.426Z,54.09
2017-01-27T00:17:51.065Z,54.19
2017-01-27T00:18:31.716Z,54
2017-01-27T00:19:12.351Z,53.87
2017-01-27T00:19:52.998Z,53.97
2017-01-27T00:20:33.676Z,54.25
2017-01-27T00:21:14.297Z,54
2017-01-27T00:21:54.956Z,53.9
2017-01-27T00:22:35.598Z,54.09
2017-01-27T00:23:16.328Z,54.09
2017-01-27T00:23:56.894Z,54.09
2017-01-27T00:24:37.529Z,53.87
2017-01-27T00:25:18.197Z,53.97
2017-01-27T00:25:58.835Z,53.97
2017-01-27T00:26:39.521Z,53.87
2017-01-27T00:27:20.223Z,53.87
2017-01-27T00:28:00.816Z,54.06
2017-01-27T00:28:41.466Z,53.97
2017-01-27T00:29:22.094Z,53.97
2017-01-27T00:30:02.748Z,53.68
2017-01-27T00:30:43.510Z,53.68
2017-01-27T00:31:24.181Z,53.39
2017-01-27T00:32:04.818Z,53.49
2017-01-27T00:32:45.451Z,53.78
2017-01-27T00:33:26.168Z,53.87
2017-01-27T00:34:06.809Z,53.58
2017-01-27T00:34:47.498Z,53.68
2017-01-27T00:35:28.138Z,53.49
2017-01-27T00:36:08.780Z,53.78
2017-01-27T00:36:49.406Z,53.58
2017-01-27T00:37:30.060Z,53.87
2017-01-27T00:38:10.692Z,53.39
2017-01-27T00:38:51.339Z,53.87
2017-01-27T00:39:31.978Z,53.49
2017-01-27T00:40:12.609Z,53.58
2017-01-27T00:40:53.307Z,53.68
2017-01-27T00:41:33.956Z,53.68
2017-01-27T00:42:14.583Z,53.78
2017-01-27T00:42:55.223Z,53.49
2017-01-27T00:43:35.875Z,53.58
2017-01-27T00:44:16.506Z,53.3
2017-01-27T00:44:57.157Z,53.2
2017-01-27T00:45:37.874Z,53.39
2017-01-27T00:46:18.510Z,53.39
2017-01-27T00:46:59.150Z,53.58
2017-01-27T00:47:39.784Z,53.49
2017-01-27T00:48:20.419Z,53.3
2017-01-27T00:49:01.056Z,53.39
2017-01-27T00:49:41.714Z,53.49
2017-01-27T00:50:22.345Z,53.58
2017-01-27T00:51:03.053Z,53.58
2017-01-27T00:51:43.681Z,53.3
2017-01-27T00:52:24.323Z,53.58
2017-01-27T00:53:04.957Z,53.49
2017-01-27T00:53:45.594Z,53.2
2017-01-27T00:54:26.230Z,53.2
2017-01-27T00:55:06.861Z,53.2
2017-01-27T00:55:47.491Z,53.39
2017-01-27T00:56:28.136Z,53.3
2017-01-27T00:57:08.771Z,53.2
2017-01-27T00:57:49.446Z,53.2
2017-01-27T00:58:30.042Z,53.2
2017-01-27T00:59:10.676Z,53.39
2017-01-27T00:59:51.312Z,53.01
2017-01-27T01:00:31.961Z,52.72
2017-01-27T01:01:12.694Z,52.81
2017-01-27T01:01:53.334Z,53.2
2017-01-27T01:02:33.964Z,53.11
2017-01-27T01:03:14.595Z,53.39
2017-01-27T01:03:55.217Z,53.2
2017-01-27T01:04:35.845Z,52.81
2017-01-27T01:05:16.499Z,53.2
2017-01-27T01:05:57.122Z,52.72
2017-01-27T01:06:37.767Z,52.91
2017-01-27T01:07:18.406Z,52.81
2017-01-27T01:07:59.042Z,53.01
2017-01-27T01:08:39.672Z,53.11
2017-01-27T01:09:20.323Z,53.11
2017-01-27T01:10:00.954Z,52.91
2017-01-27T01:10:41.586Z,53.01
2017-01-27T01:11:22.263Z,53.01
2017-01-27T01:12:02.893Z,53.01
2017-01-27T01:12:43.685Z,52.91
2017-01-27T01:13:24.349Z,53.3
2017-01-27T01:14:05.070Z,53.01
2017-01-27T01:14:45.616Z,53.2
2017-01-27T01:15:26.251Z,53.11
2017-01-27T01:16:06.874Z,53.11
2017-01-27T01:16:47.503Z,53.39
2017-01-27T01:17:28.131Z,53.3
2017-01-27T01:18:08.776Z,53.3
2017-01-27T01:18:49.492Z,53.39
2017-01-27T01:19:30.124Z,53.11
2017-01-27T01:20:10.773Z,53.39
2017-01-27T01:20:51.411Z,53.49
2017-01-27T01:21:32.059Z,53.3
2017-01-27T01:22:12.694Z,53.39
2017-01-27T01:22:53.405Z,53.3
2017-01-27T01:23:34.030Z,53.2
2017-01-27T01:24:14.655Z,53.39
2017-01-27T01:24:55.271Z,53.3
2017-01-27T01:25:35.904Z,53.01
2017-01-27T01:26:16.551Z,53.39
2017-01-27T01:26:57.199Z,53.39
2017-01-27T01:27:37.922Z,53.2
2017-01-27T01:28:18.539Z,53.39
2017-01-27T01:28:59.180Z,53.2
2017-01-27T01:29:39.813Z,53.11
2017-01-27T01:30:20.448Z,53.3
2017-01-27T01:31:01.160Z,53.2
2017-01-27T01:31:41.801Z,53.39
2017-01-27T01:32:22.432Z,53.01
2017-01-27T01:33:03.079Z,53.11
2017-01-27T01:33:43.729Z,53.3
2017-01-27T01:34:24.363Z,53.2
2017-01-27T01:35:05.004Z,53.39
2017-01-27T01:35:45.696Z,53.3
2017-01-27T01:36:26.331Z,53.3
2017-01-27T01:37:06.955Z,53.39
2017-01-27T01:37:47.582Z,53.01
2017-01-27T01:38:28.236Z,53.39
2017-01-27T01:39:08.840Z,53.3
2017-01-27T01:39:49.476Z,53.11
2017-01-27T01:40:30.112Z,53.39
2017-01-27T01:41:10.755Z,53.39
2017-01-27T01:41:51.389Z,53.39
2017-01-27T01:42:32.032Z,53.11
2017-01-27T01:43:12.737Z,53.3
2017-01-27T01:43:53.370Z,53.3
2017-01-27T01:44:34.003Z,53.11
2017-01-27T01:45:14.633Z,53.2
2017-01-27T01:45:55.267Z,53.3
2017-01-27T01:46:35.896Z,53.46
2017-01-27T01:47:16.522Z,53.39
2017-01-27T01:47:57.200Z,53.3
2017-01-27T01:48:37.774Z,53.39
2017-01-27T01:49:18.407Z,53.3
2017-01-27T01:49:59.040Z,53.39
2017-01-27T01:50:39.690Z,53.39
2017-01-27T01:52:52.690Z,53.49
2017-01-27T01:53:33.307Z,53.01
2017-01-27T01:54:13.935Z,53.2
2017-01-27T01:54:54.612Z,53.11
2017-01-27T01:55:35.237Z,53.3
2017-01-27T01:56:15.876Z,53.39
2017-01-27T01:56:56.508Z,53.39
2017-01-27T01:57:37.134Z,53.39
2017-01-27T01:58:17.753Z,53.2
2017-01-27T01:58:58.443Z,53.3
2017-01-27T01:59:39.072Z,53.3
2017-01-27T02:00:19.695Z,53.11
2017-01-27T02:01:00.324Z,53.01
2017-01-27T02:01:40.956Z,53.2
2017-01-27T02:02:21.594Z,53.39
2017-01-27T02:03:02.227Z,53.11
2017-01-27T02:03:42.911Z,53.11
2017-01-27T02:04:23.545Z,53.39
2017-01-27T02:05:04.168Z,53.11
2017-01-27T02:05:44.815Z,53.3
2017-01-27T02:06:25.450Z,53.3
2017-01-27T02:07:06.163Z,53.39
2017-01-27T02:07:46.839Z,53.3
2017-01-27T02:08:27.472Z,53.39
2017-01-27T02:09:08.099Z,53.01
2017-01-27T02:09:48.740Z,53.3
2017-01-27T02:10:29.364Z,53.01
2017-01-27T02:11:10.041Z,53.3
2017-01-27T02:11:50.709Z,53.2
2017-01-27T02:12:31.337Z,53.39
2017-01-27T02:13:11.977Z,53.3
2017-01-27T02:13:52.613Z,53.39
2017-01-27T02:14:33.242Z,53.01
2017-01-27T02:15:13.874Z,53.11
2017-01-27T02:15:54.578Z,53.2
2017-01-27T02:16:35.205Z,53.11
2017-01-27T02:17:15.834Z,53.11
2017-01-27T02:17:56.466Z,53.11
2017-01-27T02:18:37.095Z,53.01
2017-01-27T02:19:17.763Z,53.2
2017-01-27T02:19:58.414Z,52.62
2017-01-27T02:20:39.037Z,52.91
2017-01-27T02:21:19.679Z,52.81
2017-01-27T02:22:00.413Z,52.43
2017-01-27T02:22:41.056Z,52.5
2017-01-27T02:23:21.686Z,52.72
2017-01-27T02:24:02.309Z,52.6
2017-01-27T02:24:42.939Z,52.69
2017-01-27T02:25:23.563Z,52.62
2017-01-27T02:26:04.225Z,52.4
2017-01-27T02:26:44.818Z,52.6
2017-01-27T02:27:25.440Z,52.31
2017-01-27T02:28:06.063Z,52.5
2017-01-27T02:28:46.700Z,52.22
2017-01-27T02:29:27.329Z,52.4
2017-01-27T02:30:07.953Z,52.5
2017-01-27T02:30:48.653Z,52.5
2017-01-27T02:31:29.278Z,52.62
2017-01-27T02:32:09.902Z,52.6
2017-01-27T02:32:50.569Z,52.69
2017-01-27T02:33:31.220Z,52.43
2017-01-27T02:34:11.837Z,52.4
2017-01-27T02:34:52.468Z,52.6
2017-01-27T02:35:33.081Z,52.5
2017-01-27T02:36:13.714Z,52.4
2017-01-27T02:36:54.349Z,52.5
2017-01-27T02:37:34.979Z,52.24
2017-01-27T02:38:15.611Z,52.6
2017-01-27T02:38:56.240Z,52.6
2017-01-27T02:39:36.921Z,52.12
2017-01-27T02:40:17.568Z,52.14
2017-01-27T02:40:58.204Z,52.4
2017-01-27T02:41:38.845Z,52.4
2017-01-27T02:42:19.480Z,52.31
2017-01-27T02:43:00.154Z,52.12
2017-01-27T02:43:40.802Z,52.4
2017-01-27T02:44:21.426Z,52.4
2017-01-27T02:45:02.046Z,52.02
2017-01-27T02:45:42.757Z,52.22
2017-01-27T02:46:23.325Z,52.22
2017-01-27T02:47:04.072Z,51.93
2017-01-27T02:47:44.712Z,52.12
2017-01-27T02:48:25.356Z,52.22
2017-01-27T02:49:05.982Z,52.02
2017-01-27T02:49:46.656Z,52.22
2017-01-27T02:50:27.301Z,52.22
2017-01-27T02:51:07.919Z,52.22
2017-01-27T02:51:48.559Z,52.12
2017-01-27T02:52:29.194Z,52.12
2017-01-27T02:53:09.853Z,52.02
2017-01-27T02:53:50.537Z,52.02
2017-01-27T02:54:31.098Z,52.22
2017-01-27T02:55:11.742Z,52.12
2017-01-27T02:55:52.370Z,52.02
2017-01-27T02:56:33.009Z,51.93
2017-01-27T02:57:13.638Z,52.12
2017-01-27T02:57:54.254Z,52.12
2017-01-27T02:58:34.966Z,52.02
2017-01-27T02:59:15.610Z,52.22
2017-01-27T02:59:56.238Z,52.12
2017-01-27T03:00:36.859Z,52.02
2017-01-27T03:01:17.492Z,52.02
2017-01-27T03:01:58.116Z,52.12
2017-01-27T03:02:38.779Z,52.31
2017-01-27T03:03:19.410Z,52.22
2017-01-27T03:04:00.058Z,52.02
2017-01-27T03:04:40.675Z,52.22
2017-01-27T03:05:21.307Z,52.22
2017-01-27T03:06:01.924Z,52.12
2017-01-27T03:06:42.600Z,51.93
2017-01-27T03:07:23.315Z,51.93
2017-01-27T03:08:03.940Z,52.12
2017-01-27T03:08:44.576Z,52.02
2017-01-27T03:09:25.205Z,52.22
2017-01-27T03:10:05.833Z,52.31
2017-01-27T03:10:46.538Z,52.22
2017-01-27T03:11:27.177Z,52.02
2017-01-27T03:12:07.798Z,52.31
2017-01-27T03:12:48.437Z,52.12
2017-01-27T03:13:29.058Z,52.31
2017-01-27T03:14:09.696Z,52.4
2017-01-27T03:14:50.334Z,52.02
2017-01-27T03:15:30.963Z,52.22
2017-01-27T03:16:11.605Z,52.02
2017-01-27T03:16:52.228Z,52.22
2017-01-27T03:17:32.855Z,52.12
2017-01-27T03:18:13.477Z,52.12
2017-01-27T03:18:54.144Z,52.22
2017-01-27T03:19:34.774Z,52.22
2017-01-27T03:20:15.416Z,52.12
2017-01-27T03:20:56.038Z,52.22
2017-01-27T03:21:36.681Z,52.12
2017-01-27T03:22:17.378Z,52.22
2017-01-27T03:22:58.001Z,52.31
2017-01-27T03:23:38.635Z,52.12
2017-01-27T03:24:19.302Z,52.4
2017-01-27T03:24:59.944Z,52.22
2017-01-27T03:25:40.576Z,52.4
2017-01-27T03:26:21.188Z,52.12
2017-01-27T03:27:01.928Z,52.4
2017-01-27T03:27:42.559Z,52.5
2017-01-27T03:28:23.189Z,52.22
2017-01-27T03:29:03.876Z,52.22
2017-01-27T03:29:44.498Z,52.22
2017-01-27T03:30:25.123Z,52.12
2017-01-27T03:31:05.764Z,52.31
2017-01-27T03:31:46.383Z,52.12
2017-01-27T03:32:27.019Z,52.4
2017-01-27T03:33:07.651Z,52.31
2017-01-27T03:33:48.270Z,52.5
2017-01-27T03:34:29.003Z,52.5
2017-01-27T03:35:09.628Z,52.31
2017-01-27T03:35:50.267Z,52.6
2017-01-27T03:36:30.889Z,52.69
2017-01-27T03:37:11.513Z,52.4
2017-01-27T03:37:52.152Z,52.69
2017-01-27T03:38:32.795Z,52.6
2017-01-27T03:39:13.441Z,52.5
2017-01-27T03:39:54.070Z,52.5
2017-01-27T03:40:34.696Z,52.69
2017-01-27T03:41:15.368Z,52.5
2017-01-27T03:41:56.005Z,52.6
2017-01-27T03:42:36.641Z,52.6
2017-01-27T03:43:17.279Z,52.5
2017-01-27T03:43:57.918Z,52.6
2017-01-27T03:44:38.556Z,52.6
2017-01-27T03:45:19.259Z,52.6
2017-01-27T03:45:59.852Z,52.6
2017-01-27T03:46:40.567Z,52.69
2017-01-27T03:47:21.206Z,52.6
2017-01-27T03:48:01.854Z,52.22
2017-01-27T03:48:42.488Z,52.22
2017-01-27T03:49:23.206Z,52.69
2017-01-27T03:50:03.852Z,52.4
2017-01-27T03:50:44.500Z,52.5
2017-01-27T03:51:25.133Z,52.5
2017-01-27T03:52:05.763Z,52.22
2017-01-27T03:52:46.402Z,52.6
2017-01-27T03:53:27.031Z,52.5
2017-01-27T03:54:07.662Z,52.6
2017-01-27T03:54:48.295Z,52.4
2017-01-27T03:55:28.929Z,52.5
2017-01-27T03:56:09.556Z,52.31
2017-01-27T03:56:50.265Z,52.6
2017-01-27T03:57:30.888Z,52.6
2017-01-27T03:58:11.528Z,52.5
2017-01-27T03:58:52.178Z,52.5
2017-01-27T03:59:32.818Z,52.5
2017-01-27T04:00:13.443Z,52.6
2017-01-27T04:00:54.104Z,52.4
2017-01-27T04:01:34.738Z,52.6
2017-01-27T04:02:15.411Z,52.5
2017-01-27T04:02:56.044Z,52.5
2017-01-27T04:03:36.667Z,52.5
2017-01-27T04:04:17.294Z,52.69
2017-01-27T04:04:57.925Z,52.69
2017-01-27T04:05:38.558Z,52.22
2017-01-27T04:06:19.251Z,52.5
2017-01-27T04:06:59.886Z,52.5
2017-01-27T04:07:40.528Z,52.5
2017-01-27T04:08:21.162Z,52.5
2017-01-27T04:09:01.803Z,52.5
2017-01-27T04:09:42.434Z,52.5
2017-01-27T04:10:23.139Z,52.5
2017-01-27T04:11:03.817Z,52.22
2017-01-27T04:11:44.450Z,52.6
2017-01-27T04:12:25.085Z,52.6
2017-01-27T04:13:05.720Z,52.31
2017-01-27T04:13:46.340Z,52.22
2017-01-27T04:14:27.061Z,52.22
2017-01-27T04:15:07.693Z,52.6
2017-01-27T04:15:48.355Z,52.6
2017-01-27T04:16:29.019Z,52.5
2017-01-27T04:17:09.652Z,52.6
2017-01-27T04:17:50.280Z,52.5
2017-01-27T04:18:30.905Z,52.69
2017-01-27T04:19:11.601Z,52.5
2017-01-27T04:19:52.231Z,52.6
2017-01-27T04:20:32.857Z,52.5
2017-01-27T04:21:13.567Z,52.31
2017-01-27T04:21:54.199Z,52.69
2017-01-27T04:22:34.903Z,52.6
2017-01-27T04:23:15.524Z,52.6
2017-01-27T04:23:56.150Z,52.5
2017-01-27T04:24:36.791Z,52.5
2017-01-27T04:25:17.430Z,52.5
2017-01-27T04:25:58.051Z,52.69
2017-01-27T04:26:38.678Z,52.4
2017-01-27T04:27:19.312Z,52.31
2017-01-27T04:27:59.948Z,52.12
2017-01-27T04:28:40.590Z,52.22
2017-01-27T04:29:21.219Z,52.4
2017-01-27T04:30:01.848Z,52.22
2017-01-27T04:30:42.543Z,52.02
2017-01-27T04:31:23.200Z,52.22
2017-01-27T04:32:03.833Z,52.12
2017-01-27T04:32:44.476Z,52.4
2017-01-27T04:33:25.123Z,52.22
2017-01-27T04:34:05.744Z,52.12
2017-01-27T04:34:46.380Z,52.12
2017-01-27T04:35:27.007Z,52.22
2017-01-27T04:36:07.639Z,52.12
2017-01-27T04:36:48.321Z,52.12
2017-01-27T04:37:28.952Z,52.22
2017-01-27T04:38:09.608Z,52.22
2017-01-27T04:38:50.223Z,52.12
2017-01-27T04:39:30.866Z,52.31
2017-01-27T04:40:11.509Z,52.22
2017-01-27T04:40:52.162Z,52.22
2017-01-27T04:41:32.839Z,52.12
2017-01-27T04:42:13.422Z,52.31
2017-01-27T04:42:54.061Z,52.31
2017-01-27T04:43:34.686Z,52.12
2017-01-27T04:44:15.318Z,52.12
2017-01-27T04:44:55.940Z,52.31
2017-01-27T04:45:36.580Z,52.22
2017-01-27T04:46:17.260Z,52.02
2017-01-27T04:46:57.946Z,52.22
2017-01-27T04:47:38.578Z,52.31
2017-01-27T04:48:19.218Z,52.31
2017-01-27T04:48:59.850Z,52.02
2017-01-27T04:49:40.480Z,52.22
2017-01-27T04:50:21.111Z,52.12
2017-01-27T04:51:01.808Z,51.93
2017-01-27T04:51:42.459Z,52.02
2017-01-27T04:52:23.094Z,51.73
2017-01-27T04:53:03.722Z,51.93
2017-01-27T04:53:44.367Z,52.12
2017-01-27T04:54:25.053Z,51.83
2017-01-27T04:55:05.694Z,51.93
2017-01-27T04:55:46.330Z,51.83
2017-01-27T04:56:26.951Z,52.12
2017-01-27T04:57:07.583Z,52.12
2017-01-27T04:57:48.213Z,51.93
2017-01-27T04:58:28.883Z,51.93
2017-01-27T04:59:09.534Z,51.83
2017-01-27T04:59:50.159Z,52.22
2017-01-27T05:00:30.793Z,51.73
2017-01-27T05:01:11.421Z,51.93
2017-01-27T05:01:52.055Z,51.93
2017-01-27T05:02:32.685Z,51.93
2017-01-27T05:03:13.382Z,52.02
2017-01-27T05:03:54.028Z,51.64
2017-01-27T05:04:34.640Z,52.02
2017-01-27T05:05:15.271Z,51.83
2017-01-27T05:05:55.911Z,51.73
2017-01-27T05:07:53.782Z,51.83
2017-01-27T05:08:34.402Z,51.83
2017-01-27T05:09:15.041Z,51.73
2017-01-27T05:09:55.672Z,51.73
2017-01-27T05:10:36.305Z,51.83
2017-01-27T05:11:16.934Z,51.83
2017-01-27T05:11:57.568Z,51.73
2017-01-27T05:12:38.289Z,51.83
2017-01-27T05:13:18.939Z,51.83
2017-01-27T05:13:59.573Z,51.83
2017-01-27T05:14:40.207Z,51.83
2017-01-27T05:15:20.829Z,51.73
2017-01-27T05:16:01.528Z,51.64
2017-01-27T05:16:42.155Z,51.73
2017-01-27T05:17:22.776Z,51.83
2017-01-27T05:18:03.409Z,51.83
2017-01-27T05:18:44.040Z,51.73
2017-01-27T05:19:24.682Z,51.83
2017-01-27T05:20:05.309Z,51.73
2017-01-27T05:20:45.961Z,51.54
2017-01-27T05:21:26.591Z,51.64
2017-01-27T05:22:07.215Z,51.54
2017-01-27T05:22:47.844Z,51.64
2017-01-27T05:23:28.476Z,51.64
2017-01-27T05:24:09.124Z,51.54
2017-01-27T05:24:49.796Z,51.54
2017-01-27T05:25:30.439Z,51.54
2017-01-27T05:26:11.061Z,51.64
2017-01-27T05:26:51.698Z,51.54
2017-01-27T05:27:32.333Z,51.73
2017-01-27T05:28:13.032Z,51.54
2017-01-27T05:28:53.658Z,51.54
2017-01-27T05:29:34.289Z,51.64
2017-01-27T05:30:14.912Z,51.54
2017-01-27T05:30:55.544Z,51.64
2017-01-27T05:31:36.178Z,51.64
2017-01-27T05:32:16.922Z,51.64
2017-01-27T05:32:57.547Z,51.64
2017-01-27T05:33:38.180Z,51.54
2017-01-27T05:34:18.818Z,51.54
2017-01-27T05:34:59.493Z,51.54
2017-01-27T05:35:40.067Z,51.64
2017-01-27T05:36:20.693Z,51.45
2017-01-27T05:37:01.322Z,51.64
2017-01-27T05:37:41.958Z,51.35
2017-01-27T05:38:22.593Z,51.64
2017-01-27T05:39:03.218Z,51.54
2017-01-27T05:39:43.854Z,51.54
2017-01-27T05:40:24.485Z,51.54
2017-01-27T05:41:05.129Z,51.54
2017-01-27T05:41:45.785Z,51.64
2017-01-27T05:42:26.436Z,51.54
2017-01-27T05:43:07.059Z,51.54
2017-01-27T05:43:47.700Z,51.51
2017-01-27T05:44:28.341Z,51.54
2017-01-27T05:45:08.989Z,51.54
2017-01-27T05:45:49.637Z,51.54
2017-01-27T05:46:30.306Z,51.54
2017-01-27T05:47:10.935Z,51.54
2017-01-27T05:47:51.566Z,51.54
2017-01-27T05:48:32.210Z,51.64
2017-01-27T05:49:12.847Z,51.54
2017-01-27T05:49:53.561Z,51.54
2017-01-27T05:50:34.209Z,51.45
2017-01-27T05:51:14.837Z,51.54
2017-01-27T05:51:55.478Z,51.54
2017-01-27T05:52:36.201Z,51.45
2017-01-27T05:53:16.828Z,51.54
2017-01-27T05:53:57.456Z,51.64
2017-01-27T05:54:38.077Z,51.54
2017-01-27T05:55:18.701Z,51.45
2017-01-27T05:55:59.322Z,51.54
2017-01-27T05:56:39.988Z,51.54
2017-01-27T05:57:20.624Z,51.54
2017-01-27T05:58:01.246Z,51.64
2017-01-27T05:58:41.877Z,51.54
2017-01-27T05:59:22.517Z,51.51
2017-01-27T06:00:03.165Z,51.64
2017-01-27T06:00:43.888Z,51.35
2017-01-27T06:01:24.422Z,51.54
2017-01-27T06:02:05.152Z,51.54
2017-01-27T06:02:45.768Z,51.54
2017-01-27T06:03:26.395Z,51.54
2017-01-27T06:04:07.034Z,51.45
2017-01-27T06:04:47.659Z,51.54
2017-01-27T06:05:28.292Z,51.64
2017-01-27T06:06:08.917Z,51.64
2017-01-27T06:06:49.559Z,51.45
2017-01-27T06:07:30.194Z,51.54
2017-01-27T06:08:10.898Z,51.35
2017-01-27T06:08:51.529Z,51.54
2017-01-27T06:09:32.154Z,51.35
2017-01-27T06:10:12.806Z,51.45
2017-01-27T06:10:53.443Z,51.54
2017-01-27T06:11:34.066Z,51.54
2017-01-27T06:12:14.700Z,51.35
2017-01-27T06:12:55.329Z,51.45
2017-01-27T06:13:35.966Z,51.54
2017-01-27T06:14:16.592Z,51.35
2017-01-27T06:14:57.212Z,51.54
2017-01-27T06:15:37.849Z,51.64
2017-01-27T06:16:18.483Z,51.45
2017-01-27T06:16:59.118Z,51.32
2017-01-27T06:17:39.739Z,51.51
2017-01-27T06:18:20.409Z,51.35
2017-01-27T06:19:01.050Z,51.54
2017-01-27T06:19:41.692Z,51.54
2017-01-27T06:20:22.345Z,51.51
2017-01-27T06:21:02.957Z,51.42
2017-01-27T06:21:43.595Z,51.42
2017-01-27T06:22:24.216Z,51.51
2017-01-27T06:23:04.885Z,51.54
2017-01-27T06:23:45.590Z,51.61
2017-01-27T06:24:26.220Z,51.51
2017-01-27T06:25:06.880Z,51.54
2017-01-27T06:25:47.510Z,51.54
2017-01-27T06:26:28.148Z,51.54
2017-01-27T06:27:08.779Z,51.51
2017-01-27T06:27:49.451Z,51.51
2017-01-27T06:28:30.205Z,51.61
2017-01-27T06:29:10.714Z,51.42
2017-01-27T06:29:51.352Z,51.45
2017-01-27T06:30:31.985Z,51.54
2017-01-27T06:31:12.616Z,51.51
2017-01-27T06:31:53.250Z,51.25
2017-01-27T06:32:33.888Z,51.25
2017-01-27T06:33:14.617Z,51.45
2017-01-27T06:33:55.248Z,51.25
2017-01-27T06:34:35.887Z,51.23
2017-01-27T06:35:16.532Z,51.54
2017-01-27T06:35:57.161Z,51.45
2017-01-27T06:36:37.786Z,51.54
2017-01-27T06:37:18.491Z,51.54
2017-01-27T06:37:59.138Z,51.35
2017-01-27T06:38:40.119Z,51.35
2017-01-27T06:39:20.986Z,51.45
2017-01-27T06:40:01.943Z,51.61
2017-01-27T06:40:42.711Z,51.23
2017-01-27T06:41:23.677Z,51.32
2017-01-27T06:42:04.581Z,51.54
2017-01-27T06:42:45.434Z,51.42
2017-01-27T06:43:26.220Z,51.35
2017-01-27T06:44:06.847Z,51.54
2017-01-27T06:44:47.486Z,51.51
2017-01-27T06:45:28.215Z,51.35
2017-01-27T06:46:09.382Z,51.45
2017-01-27T06:46:50.227Z,51.25
2017-01-27T06:47:31.157Z,51.25
2017-01-27T06:48:11.956Z,51.32
2017-01-27T06:48:52.717Z,51.42
2017-01-27T06:49:33.459Z,51.54
2017-01-27T06:50:14.152Z,51.25
2017-01-27T06:50:55.010Z,51.23
2017-01-27T06:51:36.017Z,51.45
2017-01-27T06:52:16.814Z,51.32
2017-01-27T06:52:57.446Z,51.32
2017-01-27T06:53:38.094Z,51.32
2017-01-27T06:54:18.739Z,51.25
2017-01-27T06:54:59.428Z,51.23
2017-01-27T06:55:40.399Z,51.32
2017-01-27T06:56:21.199Z,51.42
2017-01-27T06:57:02.038Z,51.42
2017-01-27T06:57:42.783Z,51.61
2017-01-27T06:58:23.448Z,51.51
2017-01-27T06:59:04.182Z,51.61
2017-01-27T06:59:44.817Z,51.61
2017-01-27T07:00:25.627Z,51.51
2017-01-27T07:01:06.240Z,51.61
2017-01-27T07:01:46.889Z,51.64
2017-01-27T07:02:27.530Z,51.61
2017-01-27T07:03:08.153Z,51.61
2017-01-27T07:03:48.828Z,51.61
2017-01-27T07:04:29.669Z,51.42
2017-01-27T07:05:10.304Z,51.51
2017-01-27T07:05:50.927Z,51.61
2017-01-27T07:06:31.575Z,51.51
2017-01-27T07:07:12.296Z,51.61
2017-01-27T07:07:52.929Z,51.71
2017-01-27T07:08:33.552Z,51.54
2017-01-27T07:09:14.179Z,51.61
2017-01-27T07:09:54.815Z,51.61
2017-01-27T07:10:35.555Z,51.71
2017-01-27T07:11:16.216Z,51.61
2017-01-27T07:11:56.849Z,51.61
2017-01-27T07:12:37.498Z,51.71
2017-01-27T07:13:18.128Z,51.61
2017-01-27T07:13:58.755Z,51.51
2017-01-27T07:14:39.418Z,51.61
2017-01-27T07:15:20.048Z,51.61
2017-01-27T07:16:00.675Z,51.71
2017-01-27T07:16:41.309Z,51.71
2017-01-27T07:17:21.986Z,51.71
2017-01-27T07:18:02.662Z,51.54
2017-01-27T07:18:43.291Z,51.71
2017-01-27T07:19:23.935Z,51.42
2017-01-27T07:20:04.565Z,51.42
2017-01-27T07:20:45.195Z,51.42
2017-01-27T07:21:25.888Z,51.42
2017-01-27T07:22:06.538Z,51.23
2017-01-27T07:22:47.203Z,50.94
2017-01-27T07:23:27.834Z,50.94
2017-01-27T07:24:08.466Z,51.04
2017-01-27T07:24:49.107Z,51.14
2017-01-27T07:25:29.754Z,51.14
2017-01-27T07:26:10.460Z,51.32
2017-01-27T07:26:51.088Z,50.94
2017-01-27T07:27:31.722Z,51.04
2017-01-27T07:28:12.349Z,51.04
2017-01-27T07:28:53.098Z,50.94
2017-01-27T07:29:33.772Z,51.04
2017-01-27T07:30:14.422Z,51.04
2017-01-27T07:30:55.052Z,50.94
2017-01-27T07:31:35.682Z,51.32
2017-01-27T07:32:16.302Z,50.94
2017-01-27T07:32:56.985Z,50.84
2017-01-27T07:33:37.732Z,50.84
2017-01-27T07:34:18.361Z,50.84
2017-01-27T07:34:58.996Z,50.94
2017-01-27T07:35:39.621Z,50.84
2017-01-27T07:36:20.256Z,50.94
2017-01-27T07:37:00.999Z,51.04
2017-01-27T07:37:41.624Z,50.65
2017-01-27T07:38:22.265Z,50.94
2017-01-27T07:39:02.893Z,50.94
2017-01-27T07:39:43.516Z,50.94
2017-01-27T07:40:24.171Z,50.75
2017-01-27T07:41:04.861Z,50.94
2017-01-27T07:41:45.489Z,50.75
2017-01-27T07:42:26.111Z,50.94
2017-01-27T07:43:06.739Z,50.75
2017-01-27T07:43:47.367Z,50.94
2017-01-27T07:44:27.996Z,50.94
2017-01-27T07:45:08.641Z,50.65
2017-01-27T07:45:49.319Z,50.56
2017-01-27T07:46:29.937Z,50.84
2017-01-27T07:47:10.565Z,50.75
2017-01-27T07:47:51.211Z,50.94
2017-01-27T07:48:31.866Z,50.75
2017-01-27T07:49:12.572Z,50.65
2017-01-27T07:49:53.309Z,50.94
2017-01-27T07:50:33.936Z,50.65
2017-01-27T07:51:14.578Z,50.84
2017-01-27T07:51:55.223Z,50.84
2017-01-27T07:52:35.867Z,50.94
2017-01-27T07:53:16.589Z,50.94
2017-01-27T07:53:57.275Z,50.94
2017-01-27T07:54:37.902Z,50.94
2017-01-27T07:55:18.534Z,50.75
2017-01-27T07:55:59.223Z,50.84
2017-01-27T07:56:39.855Z,50.65
2017-01-27T07:57:20.495Z,50.94
2017-01-27T07:58:01.226Z,50.84
2017-01-27T07:58:41.891Z,50.84
2017-01-27T07:59:22.525Z,50.65
2017-01-27T08:00:03.159Z,50.84
2017-01-27T08:00:43.797Z,50.94
2017-01-27T08:01:24.432Z,50.94
2017-01-27T08:02:05.119Z,50.94
2017-01-27T08:02:45.791Z,50.84
2017-01-27T08:03:26.481Z,50.75
2017-01-27T08:04:07.108Z,50.94
2017-01-27T08:04:47.742Z,50.94
2017-01-27T08:05:28.393Z,51.04
2017-01-27T08:06:09.069Z,51.04
2017-01-27T08:06:49.740Z,51.04
2017-01-27T08:07:30.373Z,51.04
2017-01-27T08:08:11.050Z,50.94
2017-01-27T08:08:51.685Z,50.94
2017-01-27T08:09:32.325Z,50.94
2017-01-27T08:10:12.994Z,51.04
2017-01-27T08:10:53.708Z,51.14
2017-01-27T08:11:34.337Z,50.94
2017-01-27T08:12:14.968Z,51.04
2017-01-27T08:12:55.609Z,51.04
2017-01-27T08:13:36.237Z,51.14
2017-01-27T08:14:16.951Z,51.14
2017-01-27T08:14:57.621Z,51.32
2017-01-27T08:15:38.252Z,51.42
2017-01-27T08:16:18.892Z,51.14
2017-01-27T08:16:59.515Z,51.04
2017-01-27T08:17:40.148Z,51.04
2017-01-27T08:18:21.341Z,51.14
2017-01-27T08:19:01.968Z,50.94
2017-01-27T08:19:42.596Z,51.04
2017-01-27T08:20:23.239Z,51.14
2017-01-27T08:21:03.870Z,50.94
2017-01-27T08:21:44.506Z,51.04
2017-01-27T08:22:25.155Z,51.14
2017-01-27T08:23:05.843Z,51.32
2017-01-27T08:23:46.477Z,51.04
2017-01-27T08:24:27.120Z,51.14
2017-01-27T08:25:07.750Z,50.94
2017-01-27T08:25:48.426Z,50.94
2017-01-27T08:26:29.054Z,50.94
2017-01-27T08:27:09.689Z,50.84
2017-01-27T08:27:50.316Z,50.94
2017-01-27T08:28:30.947Z,50.94
2017-01-27T08:29:11.689Z,50.94
2017-01-27T08:29:52.343Z,50.84
2017-01-27T08:30:33.004Z,50.94
2017-01-27T08:31:13.627Z,50.94
2017-01-27T08:31:54.254Z,51.04
2017-01-27T08:32:34.895Z,50.94
2017-01-27T08:33:15.604Z,50.94
2017-01-27T08:33:56.257Z,50.84
2017-01-27T08:34:36.885Z,50.94
2017-01-27T08:35:17.533Z,50.94
2017-01-27T08:35:58.328Z,50.84
2017-01-27T08:36:38.952Z,50.84
2017-01-27T08:37:19.584Z,50.94
2017-01-27T08:38:00.203Z,51.14
2017-01-27T08:38:40.851Z,51.04
2017-01-27T08:39:21.458Z,50.94
2017-01-27T08:40:02.172Z,51.04
2017-01-27T08:40:42.803Z,50.94
2017-01-27T08:41:23.443Z,50.94
2017-01-27T08:42:04.082Z,50.94
2017-01-27T08:42:44.779Z,50.84
2017-01-27T08:43:25.366Z,50.94
2017-01-27T08:44:06.103Z,50.94
2017-01-27T08:44:46.731Z,50.75
2017-01-27T08:45:27.357Z,50.75
2017-01-27T08:46:07.981Z,50.94
2017-01-27T08:46:48.602Z,51.04
2017-01-27T08:47:29.228Z,50.94
2017-01-27T08:48:09.878Z,50.94
2017-01-27T08:48:50.504Z,50.65
2017-01-27T08:49:31.127Z,50.65